Time;durP1;ratioP1;P1;durP2;ratioP2;P2;SDS_P1;SDS_P2;PMS_P1;PMS_P2;Temp;Humidity;BMP_temperature;BMP_pressure;BME280_temperature;BME280_humidity;BME280_pressure;Samples;Min_cycle;Max_cycle;Signal;HPM_P1;HPM_P2
2023/06/25 00:01:18;;;;;;;9.35;7.88;;;;;;;;;;5026893;28;20044;-64
2023/06/25 00:03:44;;;;;;;4.72;4.20;;;;;;;;;;5028681;28;20120;-64
2023/06/25 00:06:09;;;;;;;5.05;3.80;;;;;;;;;;5028315;28;20120;-65
2023/06/25 00:08:35;;;;;;;10.70;5.47;;;;;;;;;;5018898;28;20112;-65
2023/06/25 00:11:00;;;;;;;5.65;3.85;;;;;;;;;;5019213;28;20079;-65
2023/06/25 00:13:25;;;;;;;5.35;3.90;;;;;;;;;;5027346;28;20081;-65
2023/06/25 00:15:51;;;;;;;5.03;3.70;;;;;;;;;;5026746;28;20118;-65
2023/06/25 00:18:16;;;;;;;4.60;3.13;;;;;;;;;;5023785;28;20041;-64
2023/06/25 00:20:42;;;;;;;4.97;3.47;;;;;;;;;;5030488;28;20490;-65
2023/06/25 00:23:07;;;;;;;4.78;3.50;;;;;;;;;;5016283;28;20045;-65
2023/06/25 00:25:33;;;;;;;4.80;3.75;;;;;;;;;;5029014;28;20092;-65
2023/06/25 00:27:58;;;;;;;5.80;4.28;;;;;;;;;;5025772;28;20065;-65
2023/06/25 00:30:24;;;;;;;5.05;3.70;;;;;;;;;;5022960;28;20029;-65
2023/06/25 00:32:54;;;;;;;5.82;4.00;;;;;;;;;;5022126;28;20113;-66
2023/06/25 00:35:24;;;;;;;4.85;3.55;;;;;;;;;;5004806;28;20041;-65
2023/06/25 00:37:50;;;;;;;4.60;3.50;;;;;;;;;;5029523;28;20099;-65
2023/06/25 00:40:17;;;;;;;5.38;4.05;;;;;;;;;;5024438;28;20547;-65
2023/06/25 00:42:43;;;;;;;5.15;4.00;;;;;;;;;;5025784;28;20018;-65
2023/06/25 00:45:13;;;;;;;7.03;3.85;;;;;;;;;;5023492;28;20026;-65
2023/06/25 00:47:41;;;;;;;5.65;3.90;;;;;;;;;;5021613;28;20021;-65
2023/06/25 00:50:11;;;;;;;8.48;4.00;;;;;;;;;;5027109;28;20135;-65
2023/06/25 00:52:37;;;;;;;5.68;4.22;;;;;;;;;;5018650;28;20595;-65
2023/06/25 00:55:02;;;;;;;4.72;3.60;;;;;;;;;;5026594;28;20029;-65
2023/06/25 00:57:29;;;;;;;8.07;4.95;;;;;;;;;;5025202;28;20490;-64
2023/06/25 00:59:56;;;;;;;7.82;4.72;;;;;;;;;;5021065;28;20025;-65
2023/06/25 01:02:25;;;;;;;5.95;4.63;;;;;;;;;;5022575;28;20028;-65
2023/06/25 01:05:02;;;;;;;5.85;4.10;;;;;;;;;;5023330;28;20114;-65
2023/06/25 01:07:28;;;;;;;6.45;4.72;;;;;;;;;;5028241;28;20044;-65
2023/06/25 01:09:56;;;;;;;5.45;4.65;;;;;;;;;;5024022;28;20033;-65
2023/06/25 01:12:21;;;;;;;6.40;4.70;;;;;;;;;;5022590;28;20557;-64
2023/06/25 01:14:49;;;;;;;7.20;4.38;;;;;;;;;;5022759;28;20144;-65
2023/06/25 01:17:15;;;;;;;5.70;4.32;;;;;;;;;;5022119;28;20040;-64
2023/06/25 01:19:41;;;;;;;6.90;4.57;;;;;;;;;;5024538;28;20024;-64
2023/06/25 01:22:07;;;;;;;6.00;4.50;;;;;;;;;;5025177;28;20022;-65
2023/06/25 01:24:34;;;;;;;5.70;4.20;;;;;;;;;;5018625;28;20025;-65
2023/06/25 01:27:00;;;;;;;5.82;4.47;;;;;;;;;;5022410;28;20022;-65
2023/06/25 01:29:26;;;;;;;6.45;4.47;;;;;;;;;;5019947;28;20037;-64
2023/06/25 01:31:53;;;;;;;5.55;4.35;;;;;;;;;;5029128;28;20052;-63
2023/06/25 01:34:21;;;;;;;6.30;4.43;;;;;;;;;;5024690;28;20029;-64
2023/06/25 01:36:51;;;;;;;6.40;3.83;;;;;;;;;;5031736;28;20040;-64
2023/06/25 01:39:21;;;;;;;6.00;4.05;;;;;;;;;;5026133;28;20049;-64
2023/06/25 01:41:47;;;;;;;5.63;4.25;;;;;;;;;;5022480;28;20096;-64
2023/06/25 01:44:15;;;;;;;6.10;4.13;;;;;;;;;;5021377;28;20052;-64
2023/06/25 01:46:41;;;;;;;5.47;4.05;;;;;;;;;;5019922;28;20100;-64
2023/06/25 01:49:06;;;;;;;5.47;3.83;;;;;;;;;;5020371;28;20037;-64
2023/06/25 01:51:32;;;;;;;5.25;4.20;;;;;;;;;;5019962;28;20075;-64
2023/06/25 01:53:58;;;;;;;5.22;3.83;;;;;;;;;;5017245;28;20040;-64
2023/06/25 01:56:24;;;;;;;5.55;4.10;;;;;;;;;;5019214;28;20653;-64
2023/06/25 01:58:52;;;;;;;5.18;4.20;;;;;;;;;;5014103;28;20108;-64
2023/06/25 02:01:21;;;;;;;5.15;3.90;;;;;;;;;;5020392;28;20029;-64
2023/06/25 02:03:46;;;;;;;5.10;3.75;;;;;;;;;;5015502;28;20108;-62
2023/06/25 02:06:12;;;;;;;5.20;4.07;;;;;;;;;;5021634;28;20438;-62
2023/06/25 02:08:37;;;;;;;8.20;3.85;;;;;;;;;;5018175;28;20083;-64
2023/06/25 02:11:02;;;;;;;5.60;4.55;;;;;;;;;;5019261;28;20021;-64
2023/06/25 02:13:28;;;;;;;4.78;4.00;;;;;;;;;;5024726;28;20018;-63
2023/06/25 02:15:53;;;;;;;5.65;4.03;;;;;;;;;;5022903;28;20053;-64
2023/06/25 02:18:19;;;;;;;5.78;4.10;;;;;;;;;;5023023;28;20540;-63
2023/06/25 02:20:44;;;;;;;5.53;4.00;;;;;;;;;;5021057;28;20026;-66
2023/06/25 02:23:09;;;;;;;4.63;3.45;;;;;;;;;;5016905;28;20021;-64
2023/06/25 02:25:35;;;;;;;4.70;3.80;;;;;;;;;;5021022;28;20516;-65
2023/06/25 02:28:00;;;;;;;5.85;3.60;;;;;;;;;;5019899;28;20484;-64
2023/06/25 02:30:25;;;;;;;5.88;4.03;;;;;;;;;;5019973;28;20033;-64
2023/06/25 02:32:51;;;;;;;6.15;3.70;;;;;;;;;;5015267;28;20018;-62
2023/06/25 02:35:16;;;;;;;4.78;3.50;;;;;;;;;;5023793;28;20386;-64
2023/06/25 02:37:41;;;;;;;5.60;4.30;;;;;;;;;;5018959;28;20021;-63
2023/06/25 02:40:09;;;;;;;5.70;3.55;;;;;;;;;;5019750;28;20488;-64
2023/06/25 02:42:34;;;;;;;5.57;4.20;;;;;;;;;;5020070;28;20029;-64
2023/06/25 02:45:00;;;;;;;6.53;4.18;;;;;;;;;;5017746;28;20030;-64
2023/06/25 02:47:25;;;;;;;4.50;3.50;;;;;;;;;;5016150;28;20021;-65
2023/06/25 02:49:50;;;;;;;6.57;4.38;;;;;;;;;;5021588;28;20496;-65
2023/06/25 02:52:16;;;;;;;5.72;4.18;;;;;;;;;;5015527;28;20026;-65
2023/06/25 02:54:41;;;;;;;4.90;3.78;;;;;;;;;;5016866;28;20024;-65
2023/06/25 02:57:06;;;;;;;6.72;4.15;;;;;;;;;;5020036;28;20068;-66
2023/06/25 02:59:32;;;;;;;5.07;3.80;;;;;;;;;;5009040;28;20040;-64
2023/06/25 03:01:57;;;;;;;6.13;4.18;;;;;;;;;;5021976;28;20038;-65
2023/06/25 03:04:22;;;;;;;5.93;3.90;;;;;;;;;;5015793;28;20024;-64
2023/06/25 03:06:48;;;;;;;5.38;4.10;;;;;;;;;;5018510;28;20029;-65
2023/06/25 03:09:13;;;;;;;6.22;4.65;;;;;;;;;;5016382;28;20025;-65
2023/06/25 03:11:39;;;;;;;7.03;5.05;;;;;;;;;;5013062;28;20549;-65
2023/06/25 03:14:04;;;;;;;8.40;4.72;;;;;;;;;;5014741;28;20072;-64
2023/06/25 03:16:29;;;;;;;5.55;4.38;;;;;;;;;;5019617;28;20071;-64
2023/06/25 03:18:55;;;;;;;9.45;4.30;;;;;;;;;;5020096;28;20029;-63
2023/06/25 03:21:20;;;;;;;7.47;5.05;;;;;;;;;;5018118;28;20453;-64
2023/06/25 03:23:45;;;;;;;6.57;4.53;;;;;;;;;;5019593;28;20028;-63
2023/06/25 03:26:11;;;;;;;6.53;4.25;;;;;;;;;;5016633;28;20018;-64
2023/06/25 03:28:36;;;;;;;6.57;4.82;;;;;;;;;;5014069;28;20084;-64
2023/06/25 03:31:02;;;;;;;7.50;4.70;;;;;;;;;;5017474;28;20075;-64
2023/06/25 03:33:27;;;;;;;6.35;4.78;;;;;;;;;;5023299;28;20114;-64
2023/06/25 03:35:52;;;;;;;5.78;4.18;;;;;;;;;;5014266;28;20436;-64
2023/06/25 03:38:18;;;;;;;5.63;4.25;;;;;;;;;;5020587;28;20096;-64
2023/06/25 03:40:43;;;;;;;6.82;4.22;;;;;;;;;;5019278;28;20033;-65
2023/06/25 03:43:09;;;;;;;5.80;4.68;;;;;;;;;;5015350;28;20049;-62
2023/06/25 03:45:34;;;;;;;6.10;4.25;;;;;;;;;;5017798;28;20030;-64
2023/06/25 03:47:59;;;;;;;7.47;4.47;;;;;;;;;;5011955;28;20010;-66
2023/06/25 03:50:25;;;;;;;6.85;4.03;;;;;;;;;;5021319;28;20040;-64
2023/06/25 03:52:50;;;;;;;6.13;4.75;;;;;;;;;;5019351;28;20025;-64
2023/06/25 03:55:15;;;;;;;7.40;4.90;;;;;;;;;;5015973;28;20605;-64
2023/06/25 03:57:41;;;;;;;6.15;4.55;;;;;;;;;;5019708;28;20010;-64
2023/06/25 04:00:07;;;;;;;6.13;4.78;;;;;;;;;;5024059;28;20025;-62
2023/06/25 04:02:32;;;;;;;7.28;5.10;;;;;;;;;;5029066;28;20024;-62
2023/06/25 04:04:58;;;;;;;6.07;4.32;;;;;;;;;;5019295;28;20033;-64
2023/06/25 04:07:23;;;;;;;4.63;3.90;;;;;;;;;;5024367;28;20029;-65
2023/06/25 04:09:48;;;;;;;5.25;3.83;;;;;;;;;;5022699;28;20064;-64
2023/06/25 04:12:14;;;;;;;5.53;4.35;;;;;;;;;;5022378;28;20127;-65
2023/06/25 04:14:39;;;;;;;6.05;4.88;;;;;;;;;;5024887;28;20056;-63
2023/06/25 04:17:05;;;;;;;5.78;4.55;;;;;;;;;;5021686;28;20040;-62
2023/06/25 04:19:31;;;;;;;5.25;4.60;;;;;;;;;;5023477;28;20484;-65
2023/06/25 04:21:56;;;;;;;7.32;4.20;;;;;;;;;;5021210;28;20432;-64
2023/06/25 04:24:21;;;;;;;8.07;4.82;;;;;;;;;;5022498;28;20109;-64
2023/06/25 04:26:47;;;;;;;6.70;4.57;;;;;;;;;;5025685;28;20052;-64
2023/06/25 04:29:12;;;;;;;6.55;4.20;;;;;;;;;;5023895;28;20018;-64
2023/06/25 04:31:39;;;;;;;7.13;4.55;;;;;;;;;;5020219;28;20033;-64
2023/06/25 04:34:04;;;;;;;6.85;3.90;;;;;;;;;;5020452;28;20064;-63
2023/06/25 04:36:29;;;;;;;6.82;4.68;;;;;;;;;;5022895;28;20061;-64
2023/06/25 04:38:55;;;;;;;6.47;4.28;;;;;;;;;;5023536;28;20576;-63
2023/06/25 04:41:20;;;;;;;5.65;4.22;;;;;;;;;;5022668;28;20033;-64
2023/06/25 04:43:46;;;;;;;5.55;4.30;;;;;;;;;;5021286;28;20508;-64
2023/06/25 04:46:11;;;;;;;7.15;4.60;;;;;;;;;;5020472;28;20112;-64
2023/06/25 04:48:36;;;;;;;5.55;4.03;;;;;;;;;;5018306;28;20057;-64
2023/06/25 04:51:03;;;;;;;6.55;4.35;;;;;;;;;;5023939;28;20030;-63
2023/06/25 04:53:29;;;;;;;4.60;3.70;;;;;;;;;;5020197;28;20033;-64
2023/06/25 04:55:54;;;;;;;8.88;4.40;;;;;;;;;;5023337;28;20080;-65
2023/06/25 04:58:19;;;;;;;7.85;3.92;;;;;;;;;;5022119;28;20029;-64
2023/06/25 05:00:45;;;;;;;5.68;3.15;;;;;;;;;;5018880;28;20109;-64
2023/06/25 05:03:10;;;;;;;5.10;4.10;;;;;;;;;;5023742;28;20022;-63
2023/06/25 05:05:36;;;;;;;5.57;3.38;;;;;;;;;;5019600;28;20482;-63
2023/06/25 05:08:01;;;;;;;8.65;4.13;;;;;;;;;;5022656;28;20028;-64
2023/06/25 05:10:26;;;;;;;8.07;3.92;;;;;;;;;;5027392;28;20017;-65
2023/06/25 05:12:52;;;;;;;6.07;3.63;;;;;;;;;;5016733;28;20026;-64
2023/06/25 05:15:17;;;;;;;5.88;3.85;;;;;;;;;;5020944;28;20037;-65
2023/06/25 05:17:43;;;;;;;10.25;4.13;;;;;;;;;;5017271;28;20528;-64
2023/06/25 05:20:09;;;;;;;7.47;5.07;;;;;;;;;;5019351;28;20108;-63
2023/06/25 05:22:34;;;;;;;6.32;4.35;;;;;;;;;;5008274;28;20025;-62
2023/06/25 05:24:59;;;;;;;7.00;4.80;;;;;;;;;;5023032;28;20032;-64
2023/06/25 05:27:25;;;;;;;5.75;3.80;;;;;;;;;;5017490;28;20493;-64
2023/06/25 05:29:50;;;;;;;7.20;4.53;;;;;;;;;;5019503;28;20037;-65
2023/06/25 05:32:17;;;;;;;7.32;5.10;;;;;;;;;;5017052;28;20694;-65
2023/06/25 05:34:43;;;;;;;8.68;4.85;;;;;;;;;;5019391;28;20032;-66
2023/06/25 05:37:08;;;;;;;7.93;5.25;;;;;;;;;;5025522;28;20540;-64
2023/06/25 05:39:34;;;;;;;7.82;5.07;;;;;;;;;;5018281;28;20017;-67
2023/06/25 05:41:59;;;;;;;6.82;5.63;;;;;;;;;;5004977;28;20021;-66
2023/06/25 05:44:25;;;;;;;7.40;3.88;;;;;;;;;;5016739;28;20021;-65
2023/06/25 05:46:51;;;;;;;3.92;2.97;;;;;;;;;;5021193;28;20106;-66
2023/06/25 05:49:16;;;;;;;6.28;5.65;;;;;;;;;;5024290;28;20050;-65
2023/06/25 05:51:43;;;;;;;7.88;5.35;;;;;;;;;;5021766;28;20021;-66
2023/06/25 05:54:09;;;;;;;7.63;6.00;;;;;;;;;;5022462;28;20033;-65
2023/06/25 05:56:34;;;;;;;6.28;4.85;;;;;;;;;;5019377;28;20025;-66
2023/06/25 05:59:00;;;;;;;6.55;5.53;;;;;;;;;;5023783;28;20032;-66
2023/06/25 06:01:25;;;;;;;7.95;5.28;;;;;;;;;;5020755;28;20026;-65
2023/06/25 06:03:51;;;;;;;9.70;5.57;;;;;;;;;;5015182;28;20033;-66
2023/06/25 06:06:18;;;;;;;9.15;5.90;;;;;;;;;;5019819;28;20524;-67
2023/06/25 06:08:44;;;;;;;7.78;6.10;;;;;;;;;;5024745;28;20087;-66
2023/06/25 06:11:10;;;;;;;7.22;4.57;;;;;;;;;;5018079;28;20643;-64
2023/06/25 06:13:38;;;;;;;9.38;5.60;;;;;;;;;;5014087;28;20018;-65
2023/06/25 06:16:04;;;;;;;7.38;5.25;;;;;;;;;;5017055;28;20446;-66
2023/06/25 06:18:29;;;;;;;8.18;5.78;;;;;;;;;;5019535;28;20454;-65
2023/06/25 06:20:54;;;;;;;7.97;5.55;;;;;;;;;;5023712;28;20443;-64
2023/06/25 06:23:20;;;;;;;6.45;5.00;;;;;;;;;;5022000;28;20026;-65
2023/06/25 06:25:45;;;;;;;8.20;6.47;;;;;;;;;;5022892;28;20108;-66
2023/06/25 06:28:11;;;;;;;7.80;6.00;;;;;;;;;;5016187;28;20018;-65
2023/06/25 06:30:36;;;;;;;7.38;5.13;;;;;;;;;;5021862;28;20075;-66
2023/06/25 06:33:01;;;;;;;6.78;5.75;;;;;;;;;;5024270;28;20025;-65
2023/06/25 06:35:27;;;;;;;7.05;5.28;;;;;;;;;;5022504;28;20492;-66
2023/06/25 06:37:52;;;;;;;8.38;4.97;;;;;;;;;;5018462;28;20041;-65
2023/06/25 06:40:18;;;;;;;7.68;5.60;;;;;;;;;;5020328;28;20375;-63
2023/06/25 06:42:43;;;;;;;8.05;4.75;;;;;;;;;;5019061;28;20017;-65
2023/06/25 06:45:09;;;;;;;4.32;2.92;;;;;;;;;;5018157;28;20080;-66
2023/06/25 06:47:34;;;;;;;8.20;4.95;;;;;;;;;;5025600;28;20034;-66
2023/06/25 06:50:00;;;;;;;5.50;3.95;;;;;;;;;;5017661;28;20632;-66
2023/06/25 06:52:26;;;;;;;9.38;5.45;;;;;;;;;;5017680;28;20056;-66
2023/06/25 06:54:52;;;;;;;6.10;5.20;;;;;;;;;;5017073;28;20628;-63
2023/06/25 06:57:17;;;;;;;8.40;5.95;;;;;;;;;;5016595;28;20496;-64
2023/06/25 06:59:44;;;;;;;6.82;5.68;;;;;;;;;;5021915;28;20036;-64
2023/06/25 07:02:10;;;;;;;7.43;6.22;;;;;;;;;;5019710;28;20029;-64
2023/06/25 07:04:35;;;;;;;6.53;4.75;;;;;;;;;;5019475;28;20382;-64
2023/06/25 07:07:00;;;;;;;7.97;5.38;;;;;;;;;;5016758;28;20029;-65
2023/06/25 07:09:26;;;;;;;8.43;5.10;;;;;;;;;;5016767;28;20797;-65
2023/06/25 07:11:52;;;;;;;5.88;4.57;;;;;;;;;;5022558;28;20099;-65
2023/06/25 07:14:18;;;;;;;6.85;4.85;;;;;;;;;;5024963;28;20033;-65
2023/06/25 07:16:44;;;;;;;6.28;4.55;;;;;;;;;;5022341;28;20511;-65
2023/06/25 07:19:10;;;;;;;3.30;2.58;;;;;;;;;;5017785;28;20497;-64
2023/06/25 07:21:36;;;;;;;6.72;4.85;;;;;;;;;;5017658;28;20032;-64
2023/06/25 07:24:02;;;;;;;7.75;5.15;;;;;;;;;;5018937;28;20034;-65
2023/06/25 07:26:27;;;;;;;5.63;4.15;;;;;;;;;;5019774;28;20024;-65
2023/06/25 07:28:53;;;;;;;6.65;4.78;;;;;;;;;;5020492;28;20120;-65
2023/06/25 07:31:18;;;;;;;5.30;4.10;;;;;;;;;;5014578;28;20033;-65
2023/06/25 07:33:43;;;;;;;6.93;4.95;;;;;;;;;;5016865;28;20027;-64
2023/06/25 07:36:10;;;;;;;7.70;5.15;;;;;;;;;;5018282;28;20029;-65
2023/06/25 07:38:35;;;;;;;6.78;4.65;;;;;;;;;;5018716;28;20021;-65
2023/06/25 07:41:00;;;;;;;6.57;4.65;;;;;;;;;;5019425;28;20435;-65
2023/06/25 07:43:26;;;;;;;6.10;5.10;;;;;;;;;;5016060;28;20022;-65
2023/06/25 07:45:51;;;;;;;5.45;4.47;;;;;;;;;;5012353;28;20038;-66
2023/06/25 07:48:16;;;;;;;6.22;4.78;;;;;;;;;;5019824;28;20025;-65
2023/06/25 07:50:42;;;;;;;6.22;4.40;;;;;;;;;;5015681;28;20041;-65
2023/06/25 07:53:07;;;;;;;6.00;4.15;;;;;;;;;;5015210;28;20799;-64
2023/06/25 07:55:40;;;;;;;7.45;4.30;;;;;;;;;;5016360;28;20026;-65
2023/06/25 07:58:06;;;;;;;5.53;3.90;;;;;;;;;;5013961;28;20025;-64
2023/06/25 08:00:32;;;;;;;4.95;3.85;;;;;;;;;;5019749;28;20029;-65
2023/06/25 08:02:57;;;;;;;6.25;4.00;;;;;;;;;;4998492;28;20065;-65
2023/06/25 08:05:22;;;;;;;5.07;4.35;;;;;;;;;;5016253;28;20109;-65
2023/06/25 08:07:48;;;;;;;5.85;4.25;;;;;;;;;;5017973;28;20029;-65
2023/06/25 08:10:13;;;;;;;6.38;3.92;;;;;;;;;;5019948;28;20033;-65
2023/06/25 08:12:39;;;;;;;5.72;3.70;;;;;;;;;;5015270;28;20857;-65
2023/06/25 08:15:05;;;;;;;4.45;3.28;;;;;;;;;;5012761;28;20036;-65
2023/06/25 08:17:30;;;;;;;4.93;4.07;;;;;;;;;;5019510;28;20041;-65
2023/06/25 08:19:56;;;;;;;4.32;2.83;;;;;;;;;;5016686;28;20034;-65
2023/06/25 08:22:22;;;;;;;4.80;4.05;;;;;;;;;;5017058;28;20022;-64
2023/06/25 08:24:47;;;;;;;5.05;3.72;;;;;;;;;;5012720;28;20115;-66
2023/06/25 08:27:13;;;;;;;5.13;3.85;;;;;;;;;;5019718;28;20025;-64
2023/06/25 08:29:38;;;;;;;4.22;3.25;;;;;;;;;;5020400;28;20034;-65
2023/06/25 08:32:04;;;;;;;3.78;3.03;;;;;;;;;;5018884;28;20040;-65
2023/06/25 08:34:29;;;;;;;6.32;3.42;;;;;;;;;;5016695;28;20049;-65
2023/06/25 08:36:55;;;;;;;5.05;3.80;;;;;;;;;;5013498;28;20061;-65
2023/06/25 08:39:21;;;;;;;4.07;2.60;;;;;;;;;;5017864;28;20025;-65
2023/06/25 08:41:47;;;;;;;4.65;4.15;;;;;;;;;;5018052;28;20032;-65
2023/06/25 08:44:13;;;;;;;5.38;3.80;;;;;;;;;;5020238;28;20017;-66
2023/06/25 08:46:43;;;;;;;6.03;4.35;;;;;;;;;;5021100;28;20040;-65
2023/06/25 08:49:09;;;;;;;6.30;3.83;;;;;;;;;;5013075;28;20041;-65
2023/06/25 08:51:35;;;;;;;5.50;3.60;;;;;;;;;;5017278;28;20634;-65
2023/06/25 08:54:01;;;;;;;5.30;3.92;;;;;;;;;;5020399;28;20108;-65
2023/06/25 08:56:27;;;;;;;4.15;3.40;;;;;;;;;;5020022;28;20076;-65
2023/06/25 08:58:53;;;;;;;4.68;3.72;;;;;;;;;;5018073;28;20033;-66
2023/06/25 09:01:18;;;;;;;5.85;3.65;;;;;;;;;;5018553;28;20088;-66
2023/06/25 09:03:43;;;;;;;3.80;2.60;;;;;;;;;;5016968;28;20068;-65
2023/06/25 09:06:14;;;;;;;5.25;3.38;;;;;;;;;;5021385;28;20657;-65
2023/06/25 09:08:41;;;;;;;4.93;3.25;;;;;;;;;;5016725;28;20101;-65
2023/06/25 09:11:06;;;;;;;5.13;3.67;;;;;;;;;;5019639;28;20548;-66
2023/06/25 09:13:32;;;;;;;3.97;3.28;;;;;;;;;;5020080;28;20033;-65
2023/06/25 09:16:08;;;;;;;6.05;3.88;;;;;;;;;;5018063;28;20597;-66
2023/06/25 09:18:34;;;;;;;4.63;3.75;;;;;;;;;;5019302;28;20029;-65
2023/06/25 09:21:04;;;;;;;7.32;3.63;;;;;;;;;;5019570;28;20112;-65
2023/06/25 09:23:30;;;;;;;5.30;3.10;;;;;;;;;;5015892;28;20144;-66
2023/06/25 09:25:56;;;;;;;5.32;3.70;;;;;;;;;;5016668;28;20125;-66
2023/06/25 09:28:21;;;;;;;5.65;3.58;;;;;;;;;;5002583;28;20040;-66
2023/06/25 09:30:47;;;;;;;3.53;2.67;;;;;;;;;;5018684;28;20041;-65
2023/06/25 09:33:13;;;;;;;5.05;3.33;;;;;;;;;;5023662;28;20041;-66
2023/06/25 09:35:39;;;;;;;4.57;3.47;;;;;;;;;;5017792;28;20392;-65
2023/06/25 09:38:05;;;;;;;5.20;3.50;;;;;;;;;;5014839;28;20029;-65
2023/06/25 09:40:31;;;;;;;4.63;3.75;;;;;;;;;;5019751;28;20022;-66
2023/06/25 09:42:58;;;;;;;4.30;3.60;;;;;;;;;;5013519;28;20355;-65
2023/06/25 09:45:25;;;;;;;4.50;3.45;;;;;;;;;;5031475;28;20022;-66
2023/06/25 09:47:52;;;;;;;3.90;3.20;;;;;;;;;;5016372;28;20033;-66
2023/06/25 09:50:20;;;;;;;4.22;3.55;;;;;;;;;;5015136;28;20014;-66
2023/06/25 09:52:56;;;;;;;4.38;3.10;;;;;;;;;;5015412;28;20029;-65
2023/06/25 09:55:22;;;;;;;4.88;3.80;;;;;;;;;;5023359;28;20029;-65
2023/06/25 09:57:49;;;;;;;4.32;3.50;;;;;;;;;;4999361;28;20017;-65
2023/06/25 10:00:18;;;;;;;4.85;3.70;;;;;;;;;;5017197;28;20490;-65
2023/06/25 10:02:47;;;;;;;4.63;3.50;;;;;;;;;;5015758;28;20048;-65
2023/06/25 10:05:12;;;;;;;4.72;3.40;;;;;;;;;;5015851;28;20032;-65
2023/06/25 10:07:43;;;;;;;5.20;3.63;;;;;;;;;;5021371;28;20040;-66
2023/06/25 10:10:26;;;;;;;5.55;3.80;;;;;;;;;;5018809;28;20043;-65
2023/06/25 10:12:52;;;;;;;5.18;3.45;;;;;;;;;;5017853;28;20512;-65
2023/06/25 10:15:28;;;;;;;5.15;3.80;;;;;;;;;;5019063;28;20026;-65
2023/06/25 10:17:56;;;;;;;4.18;3.42;;;;;;;;;;5017021;28;20037;-65
2023/06/25 10:20:30;;;;;;;5.65;3.80;;;;;;;;;;5017294;28;20026;-66
2023/06/25 10:23:11;;;;;;;5.10;3.58;;;;;;;;;;5017795;28;20032;-66
2023/06/25 10:25:39;;;;;;;4.97;3.70;;;;;;;;;;5015583;28;20055;-65
2023/06/25 10:28:13;;;;;;;4.32;3.67;;;;;;;;;;5017281;28;20021;-66
2023/06/25 10:30:45;;;;;;;5.22;3.70;;;;;;;;;;5017543;28;20508;-65
2023/06/25 10:33:14;;;;;;;4.00;3.45;;;;;;;;;;5021230;28;20072;-65
2023/06/25 10:35:43;;;;;;;4.45;3.58;;;;;;;;;;5016520;28;20025;-65
2023/06/25 10:38:08;;;;;;;6.22;3.83;;;;;;;;;;5003576;28;20029;-66
2023/06/25 10:40:38;;;;;;;4.25;3.55;;;;;;;;;;5020015;28;20666;-65
2023/06/25 10:43:04;;;;;;;7.50;3.90;;;;;;;;;;5017561;28;20140;-66
2023/06/25 10:45:31;;;;;;;4.15;3.42;;;;;;;;;;5018137;28;20074;-65
2023/06/25 10:48:08;;;;;;;7.40;3.88;;;;;;;;;;5017747;28;20029;-65
2023/06/25 10:50:33;;;;;;;4.25;3.30;;;;;;;;;;5018902;28;20014;-69
2023/06/25 10:53:00;;;;;;;4.38;3.67;;;;;;;;;;5016929;28;20535;-65
2023/06/25 10:55:25;;;;;;;4.28;3.53;;;;;;;;;;5017891;28;20064;-65
2023/06/25 10:57:55;;;;;;;4.93;3.60;;;;;;;;;;5023942;28;20166;-65
2023/06/25 11:00:25;;;;;;;4.20;3.60;;;;;;;;;;5019196;28;20059;-65
2023/06/25 11:02:55;;;;;;;3.92;3.35;;;;;;;;;;5017615;28;20262;-66
2023/06/25 11:05:22;;;;;;;5.25;3.65;;;;;;;;;;5020395;28;20022;-65
2023/06/25 11:07:54;;;;;;;4.85;3.88;;;;;;;;;;5020994;28;20033;-65
2023/06/25 11:10:23;;;;;;;4.07;2.50;;;;;;;;;;5020400;28;20045;-65
2023/06/25 11:12:48;;;;;;;4.68;3.75;;;;;;;;;;5018350;28;20131;-65
2023/06/25 11:15:15;;;;;;;3.80;3.05;;;;;;;;;;5021907;28;20492;-65
2023/06/25 11:17:41;;;;;;;4.20;3.70;;;;;;;;;;5020271;28;20024;-65
2023/06/25 11:20:06;;;;;;;4.53;3.70;;;;;;;;;;5019232;28;20025;-65
2023/06/25 11:22:39;;;;;;;5.60;3.50;;;;;;;;;;5018132;28;20480;-65
2023/06/25 11:25:06;;;;;;;4.30;3.50;;;;;;;;;;5020472;28;20029;-66
2023/06/25 11:27:33;;;;;;;5.00;4.00;;;;;;;;;;5018489;28;20146;-65
2023/06/25 11:30:02;;;;;;;9.40;7.97;;;;;;;;;;5018030;28;20034;-65
2023/06/25 11:32:30;;;;;;;23.08;20.67;;;;;;;;;;5013324;28;20033;-66
2023/06/25 11:34:57;;;;;;;5.00;3.78;;;;;;;;;;5003223;28;20458;-65
2023/06/25 11:37:23;;;;;;;40.40;34.78;;;;;;;;;;5020385;28;20025;-65
2023/06/25 11:39:50;;;;;;;171.45;127.07;;;;;;;;;;5019491;28;20099;-66
2023/06/25 11:42:17;;;;;;;115.95;86.38;;;;;;;;;;5019204;28;20157;-65
2023/06/25 11:44:43;;;;;;;5.25;4.15;;;;;;;;;;5013898;28;20029;-65
2023/06/25 11:47:15;;;;;;;4.10;3.53;;;;;;;;;;5017339;28;20456;-66
2023/06/25 11:49:40;;;;;;;5.25;3.88;;;;;;;;;;5019424;28;20068;-65
2023/06/25 11:52:06;;;;;;;3.95;3.53;;;;;;;;;;5017483;28;20026;-65
2023/06/25 11:54:32;;;;;;;4.75;3.35;;;;;;;;;;5021294;28;20013;-65
2023/06/25 11:56:57;;;;;;;4.95;3.58;;;;;;;;;;5021145;28;20483;-65
2023/06/25 11:59:23;;;;;;;4.18;3.58;;;;;;;;;;5012154;28;20033;-65
2023/06/25 12:01:48;;;;;;;4.43;3.90;;;;;;;;;;5013163;28;20033;-65
2023/06/25 12:04:14;;;;;;;4.93;3.42;;;;;;;;;;5017985;28;20021;-65
2023/06/25 12:06:39;;;;;;;5.13;4.20;;;;;;;;;;5018724;28;20017;-65
2023/06/25 12:09:05;;;;;;;5.45;3.63;;;;;;;;;;5020246;28;20028;-65
2023/06/25 12:11:30;;;;;;;4.25;3.22;;;;;;;;;;5020545;28;20092;-65
2023/06/25 12:13:56;;;;;;;4.00;3.13;;;;;;;;;;5018457;28;20030;-65
2023/06/25 12:16:21;;;;;;;4.60;3.35;;;;;;;;;;5020139;28;20033;-65
2023/06/25 12:18:47;;;;;;;5.95;3.45;;;;;;;;;;5022820;28;20025;-65
2023/06/25 12:21:12;;;;;;;4.70;3.35;;;;;;;;;;5023056;28;20029;-65
2023/06/25 12:23:37;;;;;;;4.80;3.63;;;;;;;;;;5019201;28;20014;-65
2023/06/25 12:26:03;;;;;;;4.63;3.72;;;;;;;;;;5025723;28;20025;-64
2023/06/25 12:28:28;;;;;;;4.15;3.15;;;;;;;;;;5026183;28;21038;-65
2023/06/25 12:30:53;;;;;;;4.95;3.67;;;;;;;;;;5019975;28;20041;-64
2023/06/25 12:33:19;;;;;;;4.85;4.07;;;;;;;;;;5018122;28;20039;-65
2023/06/25 12:35:44;;;;;;;4.40;3.47;;;;;;;;;;4993177;28;20489;-65
2023/06/25 12:38:10;;;;;;;4.68;3.17;;;;;;;;;;5016736;28;20164;-65
2023/06/25 12:40:35;;;;;;;4.60;3.35;;;;;;;;;;5019950;28;20025;-65
2023/06/25 12:43:01;;;;;;;4.70;3.85;;;;;;;;;;5021350;28;20056;-65
2023/06/25 12:45:27;;;;;;;4.18;3.60;;;;;;;;;;5009277;28;20021;-65
2023/06/25 12:47:52;;;;;;;4.93;3.58;;;;;;;;;;5017916;28;20037;-66
2023/06/25 12:50:18;;;;;;;5.40;3.65;;;;;;;;;;5019446;28;20028;-66
2023/06/25 12:52:43;;;;;;;4.28;3.28;;;;;;;;;;5017647;28;20598;-66
2023/06/25 12:55:09;;;;;;;5.03;3.47;;;;;;;;;;5021417;28;20036;-65
2023/06/25 12:57:35;;;;;;;3.63;2.92;;;;;;;;;;5022172;28;20044;-66
2023/06/25 13:00:04;;;;;;;4.13;3.47;;;;;;;;;;5021516;28;20266;-65
2023/06/25 13:02:30;;;;;;;4.30;3.40;;;;;;;;;;5021791;28;20473;-65
2023/06/25 13:04:55;;;;;;;4.25;3.60;;;;;;;;;;5021133;28;20037;-65
2023/06/25 13:07:21;;;;;;;4.32;3.53;;;;;;;;;;5022699;28;20018;-66
2023/06/25 13:09:46;;;;;;;4.35;3.45;;;;;;;;;;5026230;28;20025;-65
2023/06/25 13:12:11;;;;;;;4.00;3.60;;;;;;;;;;5025481;28;20096;-65
2023/06/25 13:14:37;;;;;;;4.47;3.58;;;;;;;;;;5020511;28;20021;-65
2023/06/25 13:17:02;;;;;;;4.38;3.85;;;;;;;;;;5027218;28;20083;-65
2023/06/25 13:19:28;;;;;;;4.32;3.83;;;;;;;;;;5018854;28;20025;-65
2023/06/25 13:21:53;;;;;;;5.40;3.70;;;;;;;;;;5020980;28;20029;-65
2023/06/25 13:24:18;;;;;;;3.95;3.35;;;;;;;;;;5021845;28;20639;-65
2023/06/25 13:26:45;;;;;;;4.57;3.10;;;;;;;;;;5022965;28;20093;-65
2023/06/25 13:29:11;;;;;;;5.30;3.65;;;;;;;;;;5018165;28;20021;-65
2023/06/25 13:31:36;;;;;;;4.28;3.50;;;;;;;;;;5016205;28;20059;-65
2023/06/25 13:34:02;;;;;;;3.83;3.10;;;;;;;;;;5021266;28;20026;-65
2023/06/25 13:36:31;;;;;;;3.97;3.20;;;;;;;;;;5018298;28;20478;-65
2023/06/25 13:38:56;;;;;;;4.50;3.38;;;;;;;;;;5020843;28;20025;-65
2023/06/25 13:41:22;;;;;;;3.78;2.90;;;;;;;;;;5009203;28;20561;-65
2023/06/25 13:43:47;;;;;;;4.30;3.08;;;;;;;;;;5014831;28;20050;-65
2023/06/25 13:46:13;;;;;;;4.25;3.50;;;;;;;;;;5022505;28;20355;-65
2023/06/25 13:48:39;;;;;;;4.25;3.33;;;;;;;;;;5021758;28;20120;-65
2023/06/25 13:51:04;;;;;;;3.97;3.20;;;;;;;;;;5025969;28;20105;-65
2023/06/25 13:53:30;;;;;;;4.15;3.40;;;;;;;;;;5019503;28;20469;-65
2023/06/25 13:55:56;;;;;;;3.80;3.28;;;;;;;;;;5016444;28;20033;-65
2023/06/25 13:58:22;;;;;;;5.85;3.58;;;;;;;;;;5022736;28;20096;-65
2023/06/25 14:00:52;;;;;;;4.18;3.08;;;;;;;;;;5021556;28;20075;-65
2023/06/25 14:03:18;;;;;;;4.57;3.40;;;;;;;;;;5020938;28;20088;-65
2023/06/25 14:05:43;;;;;;;4.20;3.60;;;;;;;;;;5021884;28;20018;-65
2023/06/25 14:08:09;;;;;;;4.45;3.38;;;;;;;;;;5020846;28;20521;-65
2023/06/25 14:10:34;;;;;;;3.70;3.30;;;;;;;;;;5013544;28;20026;-65
2023/06/25 14:13:01;;;;;;;3.78;3.17;;;;;;;;;;5018723;28;20026;-65
2023/06/25 14:15:27;;;;;;;3.58;2.85;;;;;;;;;;5019811;28;20026;-65
2023/06/25 14:17:52;;;;;;;3.85;3.10;;;;;;;;;;5021202;28;20037;-65
2023/06/25 14:20:17;;;;;;;3.70;3.20;;;;;;;;;;5022347;28;20022;-65
2023/06/25 14:22:43;;;;;;;4.35;3.22;;;;;;;;;;5022408;28;20353;-65
2023/06/25 14:25:08;;;;;;;3.38;2.80;;;;;;;;;;5018962;28;20095;-65
2023/06/25 14:27:33;;;;;;;4.25;3.22;;;;;;;;;;5018587;28;20025;-65
2023/06/25 14:29:59;;;;;;;3.92;2.95;;;;;;;;;;5017447;28;20053;-65
2023/06/25 14:32:24;;;;;;;4.25;3.22;;;;;;;;;;5014536;28;20047;-64
2023/06/25 14:34:50;;;;;;;4.07;3.22;;;;;;;;;;5012710;28;20084;-65
2023/06/25 14:37:16;;;;;;;4.13;3.30;;;;;;;;;;5016513;28;20053;-64